sensor_id;sensor_type;location;lat;lon;timestamp;temperature;humidity
3312;DHT22;1668;49.648;8.570;2023-04-15T00:00:09;7.60;1.00
3312;DHT22;1668;49.648;8.570;2023-04-15T00:02:36;7.60;1.00
3312;DHT22;1668;49.648;8.570;2023-04-15T00:05:04;7.50;22.70
3312;DHT22;1668;49.648;8.570;2023-04-15T00:07:32;7.60;99.90
3312;DHT22;1668;49.648;8.570;2023-04-15T00:10:01;7.50;90.20
3312;DHT22;1668;49.648;8.570;2023-04-15T00:12:29;7.50;99.90
3312;DHT22;1668;49.648;8.570;2023-04-15T00:14:56;7.40;99.90
3312;DHT22;1668;49.648;8.570;2023-04-15T00:17:23;7.40;99.90
3312;DHT22;1668;49.648;8.570;2023-04-15T00:19:50;7.30;99.90
3312;DHT22;1668;49.648;8.570;2023-04-15T00:22:17;7.30;99.90
3312;DHT22;1668;49.648;8.570;2023-04-15T00:24:44;7.30;99.90
3312;DHT22;1668;49.648;8.570;2023-04-15T00:27:12;7.20;1.00
3312;DHT22;1668;49.648;8.570;2023-04-15T00:29:39;7.20;1.00
3312;DHT22;1668;49.648;8.570;2023-04-15T00:32:07;7.20;1.00
3312;DHT22;1668;49.648;8.570;2023-04-15T00:34:33;7.20;1.00
3312;DHT22;1668;49.648;8.570;2023-04-15T00:37:01;7.10;7.50
3312;DHT22;1668;49.648;8.570;2023-04-15T00:39:28;7.10;1.00
3312;DHT22;1668;49.648;8.570;2023-04-15T00:41:55;7.00;43.50
3312;DHT22;1668;49.648;8.570;2023-04-15T00:44:24;7.00;78.90
3312;DHT22;1668;49.648;8.570;2023-04-15T00:46:51;6.90;1.00
3312;DHT22;1668;49.648;8.570;2023-04-15T00:49:18;6.90;1.00
3312;DHT22;1668;49.648;8.570;2023-04-15T00:51:45;6.90;1.00
3312;DHT22;1668;49.648;8.570;2023-04-15T00:54:12;6.80;1.00
3312;DHT22;1668;49.648;8.570;2023-04-15T00:56:39;6.80;59.50
3312;DHT22;1668;49.648;8.570;2023-04-15T00:59:07;6.80;99.90
3312;DHT22;1668;49.648;8.570;2023-04-15T01:01:36;6.80;99.90
3312;DHT22;1668;49.648;8.570;2023-04-15T01:04:03;6.80;99.90
3312;DHT22;1668;49.648;8.570;2023-04-15T01:06:31;6.70;99.90
3312;DHT22;1668;49.648;8.570;2023-04-15T01:08:59;6.70;99.90
3312;DHT22;1668;49.648;8.570;2023-04-15T01:11:26;6.70;99.90
3312;DHT22;1668;49.648;8.570;2023-04-15T01:13:55;6.70;99.90
3312;DHT22;1668;49.648;8.570;2023-04-15T01:16:22;6.60;99.90
3312;DHT22;1668;49.648;8.570;2023-04-15T01:18:51;6.60;1.00
3312;DHT22;1668;49.648;8.570;2023-04-15T01:21:18;6.60;99.90
3312;DHT22;1668;49.648;8.570;2023-04-15T01:23:46;6.50;99.90
3312;DHT22;1668;49.648;8.570;2023-04-15T01:26:15;6.50;99.90
3312;DHT22;1668;49.648;8.570;2023-04-15T01:28:42;6.40;99.90
3312;DHT22;1668;49.648;8.570;2023-04-15T01:31:11;6.40;99.90
3312;DHT22;1668;49.648;8.570;2023-04-15T01:33:39;6.40;99.90
3312;DHT22;1668;49.648;8.570;2023-04-15T01:36:07;6.40;99.90
3312;DHT22;1668;49.648;8.570;2023-04-15T01:38:35;6.40;99.90
3312;DHT22;1668;49.648;8.570;2023-04-15T01:41:03;6.40;99.90
3312;DHT22;1668;49.648;8.570;2023-04-15T01:43:33;6.30;99.90
3312;DHT22;1668;49.648;8.570;2023-04-15T01:46:00;6.30;99.90
3312;DHT22;1668;49.648;8.570;2023-04-15T01:48:27;6.20;99.90
3312;DHT22;1668;49.648;8.570;2023-04-15T01:50:54;6.20;1.00
3312;DHT22;1668;49.648;8.570;2023-04-15T01:53:23;6.20;1.00
3312;DHT22;1668;49.648;8.570;2023-04-15T01:55:50;6.10;1.00
3312;DHT22;1668;49.648;8.570;2023-04-15T01:58:17;6.10;99.90
3312;DHT22;1668;49.648;8.570;2023-04-15T02:00:46;6.10;99.90
3312;DHT22;1668;49.648;8.570;2023-04-15T02:03:13;6.00;99.90
3312;DHT22;1668;49.648;8.570;2023-04-15T02:05:40;6.00;99.90
3312;DHT22;1668;49.648;8.570;2023-04-15T02:08:08;6.00;99.90
3312;DHT22;1668;49.648;8.570;2023-04-15T02:10:35;5.90;99.90
3312;DHT22;1668;49.648;8.570;2023-04-15T02:13:01;5.90;99.90
3312;DHT22;1668;49.648;8.570;2023-04-15T02:15:29;5.90;99.90
3312;DHT22;1668;49.648;8.570;2023-04-15T02:17:59;5.90;99.90
3312;DHT22;1668;49.648;8.570;2023-04-15T02:20:26;5.80;1.00
3312;DHT22;1668;49.648;8.570;2023-04-15T02:22:55;5.80;1.00
3312;DHT22;1668;49.648;8.570;2023-04-15T02:25:22;5.80;99.90
3312;DHT22;1668;49.648;8.570;2023-04-15T02:27:49;5.80;99.90
3312;DHT22;1668;49.648;8.570;2023-04-15T02:30:16;5.80;99.90
3312;DHT22;1668;49.648;8.570;2023-04-15T02:32:44;5.80;99.90
3312;DHT22;1668;49.648;8.570;2023-04-15T02:35:12;5.80;99.90
3312;DHT22;1668;49.648;8.570;2023-04-15T02:37:39;5.70;99.90
3312;DHT22;1668;49.648;8.570;2023-04-15T02:40:09;5.70;1.00
3312;DHT22;1668;49.648;8.570;2023-04-15T02:42:37;5.60;1.00
3312;DHT22;1668;49.648;8.570;2023-04-15T02:45:05;5.60;8.30
3312;DHT22;1668;49.648;8.570;2023-04-15T02:47:32;5.60;99.90
3312;DHT22;1668;49.648;8.570;2023-04-15T02:50:02;5.50;99.90
3312;DHT22;1668;49.648;8.570;2023-04-15T02:52:31;5.50;99.90
3312;DHT22;1668;49.648;8.570;2023-04-15T02:54:57;5.50;99.90
3312;DHT22;1668;49.648;8.570;2023-04-15T02:57:27;5.50;99.90
3312;DHT22;1668;49.648;8.570;2023-04-15T02:59:54;5.40;1.00
3312;DHT22;1668;49.648;8.570;2023-04-15T03:02:21;5.40;99.90
3312;DHT22;1668;49.648;8.570;2023-04-15T03:04:48;5.40;99.90
3312;DHT22;1668;49.648;8.570;2023-04-15T03:07:16;5.40;99.90
3312;DHT22;1668;49.648;8.570;2023-04-15T03:09:45;5.40;99.90
3312;DHT22;1668;49.648;8.570;2023-04-15T03:12:12;5.30;99.90
3312;DHT22;1668;49.648;8.570;2023-04-15T03:14:39;5.30;12.00
3312;DHT22;1668;49.648;8.570;2023-04-15T03:17:06;5.30;1.00
3312;DHT22;1668;49.648;8.570;2023-04-15T03:19:33;5.30;1.00
3312;DHT22;1668;49.648;8.570;2023-04-15T03:22:00;5.20;1.00
3312;DHT22;1668;49.648;8.570;2023-04-15T03:24:26;5.20;1.00
3312;DHT22;1668;49.648;8.570;2023-04-15T03:26:56;5.20;1.00
3312;DHT22;1668;49.648;8.570;2023-04-15T03:29:23;5.10;1.00
3312;DHT22;1668;49.648;8.570;2023-04-15T03:31:51;5.10;1.00
3312;DHT22;1668;49.648;8.570;2023-04-15T03:34:18;5.10;1.00
3312;DHT22;1668;49.648;8.570;2023-04-15T03:36:46;5.00;1.00
3312;DHT22;1668;49.648;8.570;2023-04-15T03:39:13;5.00;1.00
3312;DHT22;1668;49.648;8.570;2023-04-15T03:41:40;5.00;1.00
3312;DHT22;1668;49.648;8.570;2023-04-15T03:44:08;4.90;1.00
3312;DHT22;1668;49.648;8.570;2023-04-15T03:46:35;4.90;1.00
3312;DHT22;1668;49.648;8.570;2023-04-15T03:49:02;4.80;1.00
3312;DHT22;1668;49.648;8.570;2023-04-15T03:51:29;4.70;1.00
3312;DHT22;1668;49.648;8.570;2023-04-15T03:53:56;4.60;1.00
3312;DHT22;1668;49.648;8.570;2023-04-15T03:56:24;4.60;99.90
3312;DHT22;1668;49.648;8.570;2023-04-15T03:58:50;4.60;99.90
3312;DHT22;1668;49.648;8.570;2023-04-15T04:01:19;4.60;1.00
3312;DHT22;1668;49.648;8.570;2023-04-15T04:03:46;4.70;1.00
3312;DHT22;1668;49.648;8.570;2023-04-15T04:06:13;4.70;99.90
3312;DHT22;1668;49.648;8.570;2023-04-15T04:08:41;4.70;99.90
3312;DHT22;1668;49.648;8.570;2023-04-15T04:11:08;4.60;1.00
3312;DHT22;1668;49.648;8.570;2023-04-15T04:13:35;4.70;1.00
3312;DHT22;1668;49.648;8.570;2023-04-15T04:16:13;4.70;1.00
3312;DHT22;1668;49.648;8.570;2023-04-15T04:22:48;4.60;32.20
3312;DHT22;1668;49.648;8.570;2023-04-15T04:26:04;4.60;99.90
3312;DHT22;1668;49.648;8.570;2023-04-15T04:29:19;4.60;99.90
3312;DHT22;1668;49.648;8.570;2023-04-15T04:32:18;4.60;99.90
3312;DHT22;1668;49.648;8.570;2023-04-15T04:35:15;4.60;99.90
3312;DHT22;1668;49.648;8.570;2023-04-15T04:38:13;4.60;99.90
3312;DHT22;1668;49.648;8.570;2023-04-15T04:41:11;4.60;1.00
3312;DHT22;1668;49.648;8.570;2023-04-15T04:44:15;4.60;1.00
3312;DHT22;1668;49.648;8.570;2023-04-15T04:47:15;4.50;99.90
3312;DHT22;1668;49.648;8.570;2023-04-15T04:50:21;4.40;14.80
3312;DHT22;1668;49.648;8.570;2023-04-15T04:53:43;4.40;99.90
3312;DHT22;1668;49.648;8.570;2023-04-15T04:56:47;4.40;1.00
3312;DHT22;1668;49.648;8.570;2023-04-15T04:59:47;4.40;1.00
3312;DHT22;1668;49.648;8.570;2023-04-15T05:02:43;4.40;1.00
3312;DHT22;1668;49.648;8.570;2023-04-15T05:05:38;4.40;1.00
3312;DHT22;1668;49.648;8.570;2023-04-15T05:08:18;4.40;98.00
3312;DHT22;1668;49.648;8.570;2023-04-15T05:10:46;4.40;99.90
3312;DHT22;1668;49.648;8.570;2023-04-15T05:13:13;4.40;99.90
3312;DHT22;1668;49.648;8.570;2023-04-15T05:15:40;4.40;99.90
3312;DHT22;1668;49.648;8.570;2023-04-15T05:18:07;4.40;1.00
3312;DHT22;1668;49.648;8.570;2023-04-15T05:20:34;4.40;1.00
3312;DHT22;1668;49.648;8.570;2023-04-15T05:23:01;4.30;99.90
3312;DHT22;1668;49.648;8.570;2023-04-15T05:25:28;4.30;1.00
3312;DHT22;1668;49.648;8.570;2023-04-15T05:27:56;4.30;1.00
3312;DHT22;1668;49.648;8.570;2023-04-15T05:30:23;4.30;99.90
3312;DHT22;1668;49.648;8.570;2023-04-15T05:32:50;4.20;99.90
3312;DHT22;1668;49.648;8.570;2023-04-15T05:35:17;4.20;1.00
3312;DHT22;1668;49.648;8.570;2023-04-15T05:37:44;4.30;1.00
3312;DHT22;1668;49.648;8.570;2023-04-15T05:40:12;4.30;99.90
3312;DHT22;1668;49.648;8.570;2023-04-15T05:42:38;4.30;23.40
3312;DHT22;1668;49.648;8.570;2023-04-15T05:45:08;4.20;1.00
3312;DHT22;1668;49.648;8.570;2023-04-15T05:47:34;4.20;1.00
3312;DHT22;1668;49.648;8.570;2023-04-15T05:50:02;4.20;1.00
3312;DHT22;1668;49.648;8.570;2023-04-15T05:52:29;4.20;1.00
3312;DHT22;1668;49.648;8.570;2023-04-15T05:54:56;4.20;1.00
3312;DHT22;1668;49.648;8.570;2023-04-15T05:57:23;4.20;1.00
3312;DHT22;1668;49.648;8.570;2023-04-15T05:59:50;4.20;99.90
3312;DHT22;1668;49.648;8.570;2023-04-15T06:02:18;4.20;99.90
3312;DHT22;1668;49.648;8.570;2023-04-15T06:04:45;4.10;1.00
3312;DHT22;1668;49.648;8.570;2023-04-15T06:07:12;4.20;1.00
3312;DHT22;1668;49.648;8.570;2023-04-15T06:09:40;4.20;99.90
3312;DHT22;1668;49.648;8.570;2023-04-15T06:12:06;4.30;99.90
3312;DHT22;1668;49.648;8.570;2023-04-15T06:14:36;4.40;1.00
3312;DHT22;1668;49.648;8.570;2023-04-15T06:17:03;4.40;1.00
3312;DHT22;1668;49.648;8.570;2023-04-15T06:19:31;4.50;1.00
3312;DHT22;1668;49.648;8.570;2023-04-15T06:21:59;4.50;81.90
3312;DHT22;1668;49.648;8.570;2023-04-15T06:24:26;4.60;99.90
3312;DHT22;1668;49.648;8.570;2023-04-15T06:26:53;4.60;99.90
3312;DHT22;1668;49.648;8.570;2023-04-15T06:29:19;4.70;99.90
3312;DHT22;1668;49.648;8.570;2023-04-15T06:31:46;4.70;99.90
3312;DHT22;1668;49.648;8.570;2023-04-15T06:34:13;4.70;99.90
3312;DHT22;1668;49.648;8.570;2023-04-15T06:36:42;4.80;99.90
3312;DHT22;1668;49.648;8.570;2023-04-15T06:39:09;4.90;99.90
3312;DHT22;1668;49.648;8.570;2023-04-15T06:41:36;4.90;99.90
3312;DHT22;1668;49.648;8.570;2023-04-15T06:44:03;5.00;99.90
3312;DHT22;1668;49.648;8.570;2023-04-15T06:46:30;5.00;99.90
3312;DHT22;1668;49.648;8.570;2023-04-15T06:48:57;5.00;99.90
3312;DHT22;1668;49.648;8.570;2023-04-15T06:51:24;5.10;99.90
3312;DHT22;1668;49.648;8.570;2023-04-15T06:53:52;5.10;99.90
3312;DHT22;1668;49.648;8.570;2023-04-15T06:56:19;5.10;99.90
3312;DHT22;1668;49.648;8.570;2023-04-15T06:58:47;5.20;99.90
3312;DHT22;1668;49.648;8.570;2023-04-15T07:01:14;5.20;99.90
3312;DHT22;1668;49.648;8.570;2023-04-15T07:03:41;5.20;99.90
3312;DHT22;1668;49.648;8.570;2023-04-15T07:06:08;5.30;19.80
3312;DHT22;1668;49.648;8.570;2023-04-15T07:08:35;5.40;28.90
3312;DHT22;1668;49.648;8.570;2023-04-15T07:11:03;5.40;1.00
3312;DHT22;1668;49.648;8.570;2023-04-15T07:13:31;5.50;1.00
3312;DHT22;1668;49.648;8.570;2023-04-15T07:15:58;5.60;1.00
3312;DHT22;1668;49.648;8.570;2023-04-15T07:18:25;5.70;1.00
3312;DHT22;1668;49.648;8.570;2023-04-15T07:20:52;5.70;99.90
3312;DHT22;1668;49.648;8.570;2023-04-15T07:23:19;5.80;99.90
3312;DHT22;1668;49.648;8.570;2023-04-15T07:25:47;5.90;24.60
3312;DHT22;1668;49.648;8.570;2023-04-15T07:28:15;5.90;55.90
3312;DHT22;1668;49.648;8.570;2023-04-15T07:30:42;6.00;99.90
3312;DHT22;1668;49.648;8.570;2023-04-15T07:33:09;6.00;99.90
3312;DHT22;1668;49.648;8.570;2023-04-15T07:35:36;6.00;99.90
3312;DHT22;1668;49.648;8.570;2023-04-15T07:38:03;6.10;99.90
3312;DHT22;1668;49.648;8.570;2023-04-15T07:40:30;6.20;1.00
3312;DHT22;1668;49.648;8.570;2023-04-15T07:42:57;6.20;1.00
3312;DHT22;1668;49.648;8.570;2023-04-15T07:45:26;6.30;1.00
3312;DHT22;1668;49.648;8.570;2023-04-15T07:47:53;6.30;99.90
3312;DHT22;1668;49.648;8.570;2023-04-15T07:50:20;6.30;99.90
3312;DHT22;1668;49.648;8.570;2023-04-15T07:52:48;6.40;36.90
3312;DHT22;1668;49.648;8.570;2023-04-15T07:55:16;6.50;1.00
3312;DHT22;1668;49.648;8.570;2023-04-15T07:57:44;6.60;1.00
3312;DHT22;1668;49.648;8.570;2023-04-15T08:00:13;6.70;1.00
3312;DHT22;1668;49.648;8.570;2023-04-15T08:02:42;6.80;70.40
3312;DHT22;1668;49.648;8.570;2023-04-15T08:05:10;6.80;1.00
3312;DHT22;1668;49.648;8.570;2023-04-15T08:07:37;6.90;99.90
3312;DHT22;1668;49.648;8.570;2023-04-15T08:10:05;7.10;99.90
3312;DHT22;1668;49.648;8.570;2023-04-15T08:12:32;7.20;1.00
3312;DHT22;1668;49.648;8.570;2023-04-15T08:15:00;7.30;1.00
3312;DHT22;1668;49.648;8.570;2023-04-15T08:17:27;7.40;99.90
3312;DHT22;1668;49.648;8.570;2023-04-15T08:19:55;7.60;99.90
3312;DHT22;1668;49.648;8.570;2023-04-15T08:22:22;7.70;1.00
3312;DHT22;1668;49.648;8.570;2023-04-15T08:24:50;7.80;99.90
3312;DHT22;1668;49.648;8.570;2023-04-15T08:27:17;8.00;1.00
3312;DHT22;1668;49.648;8.570;2023-04-15T08:29:44;8.00;99.90
3312;DHT22;1668;49.648;8.570;2023-04-15T08:32:11;8.20;82.70
3312;DHT22;1668;49.648;8.570;2023-04-15T08:34:39;8.30;1.00
3312;DHT22;1668;49.648;8.570;2023-04-15T08:37:07;8.50;1.00
3312;DHT22;1668;49.648;8.570;2023-04-15T08:39:34;8.70;1.00
3312;DHT22;1668;49.648;8.570;2023-04-15T08:42:03;8.90;99.90
3312;DHT22;1668;49.648;8.570;2023-04-15T08:44:33;9.10;99.90
3312;DHT22;1668;49.648;8.570;2023-04-15T08:47:02;9.20;1.00
3312;DHT22;1668;49.648;8.570;2023-04-15T08:49:31;9.30;70.00
3312;DHT22;1668;49.648;8.570;2023-04-15T08:51:58;9.50;16.40
3312;DHT22;1668;49.648;8.570;2023-04-15T08:54:27;9.70;99.90
3312;DHT22;1668;49.648;8.570;2023-04-15T08:56:56;9.90;1.00
3312;DHT22;1668;49.648;8.570;2023-04-15T08:59:24;10.10;99.90
3312;DHT22;1668;49.648;8.570;2023-04-15T09:01:51;10.30;1.00
3312;DHT22;1668;49.648;8.570;2023-04-15T09:04:18;10.50;69.60
3312;DHT22;1668;49.648;8.570;2023-04-15T09:06:46;10.60;1.00
3312;DHT22;1668;49.648;8.570;2023-04-15T09:09:13;10.80;1.00
3312;DHT22;1668;49.648;8.570;2023-04-15T09:11:41;11.00;99.90
3312;DHT22;1668;49.648;8.570;2023-04-15T09:14:08;11.10;99.90
3312;DHT22;1668;49.648;8.570;2023-04-15T09:16:58;11.30;99.90
3312;DHT22;1668;49.648;8.570;2023-04-15T09:19:25;11.50;99.90
3312;DHT22;1668;49.648;8.570;2023-04-15T09:21:53;11.60;99.90
3312;DHT22;1668;49.648;8.570;2023-04-15T09:24:21;11.60;57.00
3312;DHT22;1668;49.648;8.570;2023-04-15T09:26:52;11.70;99.90
3312;DHT22;1668;49.648;8.570;2023-04-15T09:29:20;11.90;71.30
3312;DHT22;1668;49.648;8.570;2023-04-15T09:31:49;11.90;1.00
3312;DHT22;1668;49.648;8.570;2023-04-15T09:34:17;11.90;1.00
3312;DHT22;1668;49.648;8.570;2023-04-15T09:36:54;11.90;1.00
3312;DHT22;1668;49.648;8.570;2023-04-15T09:39:22;12.00;1.00
3312;DHT22;1668;49.648;8.570;2023-04-15T09:42:06;12.10;1.00
3312;DHT22;1668;49.648;8.570;2023-04-15T09:44:33;12.20;1.00
3312;DHT22;1668;49.648;8.570;2023-04-15T09:47:00;12.30;1.00
3312;DHT22;1668;49.648;8.570;2023-04-15T09:49:27;12.40;1.00
3312;DHT22;1668;49.648;8.570;2023-04-15T09:51:58;12.40;1.00
3312;DHT22;1668;49.648;8.570;2023-04-15T09:54:35;12.50;1.00
3312;DHT22;1668;49.648;8.570;2023-04-15T09:57:08;12.60;1.00
3312;DHT22;1668;49.648;8.570;2023-04-15T09:59:36;12.60;1.00
3312;DHT22;1668;49.648;8.570;2023-04-15T10:02:04;12.70;1.00
3312;DHT22;1668;49.648;8.570;2023-04-15T10:04:34;12.70;1.00
3312;DHT22;1668;49.648;8.570;2023-04-15T10:07:03;12.80;1.00
3312;DHT22;1668;49.648;8.570;2023-04-15T10:09:31;12.90;1.00
3312;DHT22;1668;49.648;8.570;2023-04-15T10:11:59;12.90;1.00
3312;DHT22;1668;49.648;8.570;2023-04-15T10:14:31;13.00;1.00
3312;DHT22;1668;49.648;8.570;2023-04-15T10:17:00;13.00;1.00
3312;DHT22;1668;49.648;8.570;2023-04-15T10:19:30;13.10;1.00
3312;DHT22;1668;49.648;8.570;2023-04-15T10:21:57;13.20;1.00
3312;DHT22;1668;49.648;8.570;2023-04-15T10:24:25;13.30;1.00
3312;DHT22;1668;49.648;8.570;2023-04-15T10:26:53;13.30;1.00
3312;DHT22;1668;49.648;8.570;2023-04-15T10:29:20;13.30;1.00
3312;DHT22;1668;49.648;8.570;2023-04-15T10:31:48;13.40;1.00
3312;DHT22;1668;49.648;8.570;2023-04-15T10:34:16;13.40;1.00
3312;DHT22;1668;49.648;8.570;2023-04-15T10:36:44;13.40;1.00
3312;DHT22;1668;49.648;8.570;2023-04-15T10:39:37;13.50;1.00
3312;DHT22;1668;49.648;8.570;2023-04-15T10:42:09;13.50;1.00
3312;DHT22;1668;49.648;8.570;2023-04-15T10:44:37;13.50;1.00
3312;DHT22;1668;49.648;8.570;2023-04-15T10:47:13;13.50;1.00
3312;DHT22;1668;49.648;8.570;2023-04-15T10:49:47;13.50;1.00
3312;DHT22;1668;49.648;8.570;2023-04-15T10:52:16;13.50;1.00
3312;DHT22;1668;49.648;8.570;2023-04-15T10:54:43;13.40;1.00
3312;DHT22;1668;49.648;8.570;2023-04-15T10:57:15;13.40;1.00
3312;DHT22;1668;49.648;8.570;2023-04-15T11:00:08;13.40;1.00
3312;DHT22;1668;49.648;8.570;2023-04-15T11:02:42;13.40;1.00
3312;DHT22;1668;49.648;8.570;2023-04-15T11:05:09;13.40;1.00
3312;DHT22;1668;49.648;8.570;2023-04-15T11:07:39;13.40;1.00
3312;DHT22;1668;49.648;8.570;2023-04-15T11:13:19;13.40;1.00
3312;DHT22;1668;49.648;8.570;2023-04-15T11:15:48;13.40;1.00
3312;DHT22;1668;49.648;8.570;2023-04-15T11:18:19;13.40;1.00
3312;DHT22;1668;49.648;8.570;2023-04-15T11:20:47;13.40;1.00
3312;DHT22;1668;49.648;8.570;2023-04-15T11:23:17;13.40;1.00
3312;DHT22;1668;49.648;8.570;2023-04-15T11:25:44;13.40;1.00
3312;DHT22;1668;49.648;8.570;2023-04-15T11:28:13;13.50;1.00
3312;DHT22;1668;49.648;8.570;2023-04-15T11:30:41;13.50;1.00
3312;DHT22;1668;49.648;8.570;2023-04-15T11:33:10;13.50;1.00
3312;DHT22;1668;49.648;8.570;2023-04-15T11:35:41;13.50;1.00
3312;DHT22;1668;49.648;8.570;2023-04-15T11:38:09;13.60;1.00
3312;DHT22;1668;49.648;8.570;2023-04-15T11:40:37;13.70;1.00
3312;DHT22;1668;49.648;8.570;2023-04-15T11:43:06;13.70;1.00
3312;DHT22;1668;49.648;8.570;2023-04-15T11:45:33;13.80;1.00
3312;DHT22;1668;49.648;8.570;2023-04-15T11:48:08;13.90;1.00
3312;DHT22;1668;49.648;8.570;2023-04-15T11:50:36;14.10;1.00
3312;DHT22;1668;49.648;8.570;2023-04-15T11:53:08;14.10;1.00
3312;DHT22;1668;49.648;8.570;2023-04-15T11:55:42;14.20;1.00
3312;DHT22;1668;49.648;8.570;2023-04-15T11:58:12;14.30;1.00
3312;DHT22;1668;49.648;8.570;2023-04-15T12:00:40;14.40;1.00
3312;DHT22;1668;49.648;8.570;2023-04-15T12:03:12;14.50;1.00
3312;DHT22;1668;49.648;8.570;2023-04-15T12:06:03;14.40;1.00
3312;DHT22;1668;49.648;8.570;2023-04-15T12:08:57;14.40;1.00
3312;DHT22;1668;49.648;8.570;2023-04-15T12:11:36;14.40;1.00
3312;DHT22;1668;49.648;8.570;2023-04-15T12:14:05;14.40;1.00
3312;DHT22;1668;49.648;8.570;2023-04-15T12:16:34;14.40;1.00
3312;DHT22;1668;49.648;8.570;2023-04-15T12:19:04;14.30;1.00
3312;DHT22;1668;49.648;8.570;2023-04-15T12:21:37;14.20;1.00
3312;DHT22;1668;49.648;8.570;2023-04-15T12:24:07;14.30;1.00
3312;DHT22;1668;49.648;8.570;2023-04-15T12:26:36;14.30;1.00
3312;DHT22;1668;49.648;8.570;2023-04-15T12:29:06;14.30;1.00
3312;DHT22;1668;49.648;8.570;2023-04-15T12:31:33;14.20;1.00
3312;DHT22;1668;49.648;8.570;2023-04-15T12:34:01;14.20;1.00
3312;DHT22;1668;49.648;8.570;2023-04-15T12:36:29;14.20;1.00
3312;DHT22;1668;49.648;8.570;2023-04-15T12:39:01;14.10;1.00
3312;DHT22;1668;49.648;8.570;2023-04-15T12:41:30;14.10;1.00
3312;DHT22;1668;49.648;8.570;2023-04-15T12:43:57;14.10;1.00
3312;DHT22;1668;49.648;8.570;2023-04-15T12:46:24;14.10;1.00
3312;DHT22;1668;49.648;8.570;2023-04-15T12:48:52;14.10;1.00
3312;DHT22;1668;49.648;8.570;2023-04-15T12:51:19;14.00;1.00
3312;DHT22;1668;49.648;8.570;2023-04-15T12:53:46;14.00;1.00
3312;DHT22;1668;49.648;8.570;2023-04-15T12:56:14;14.00;1.00
3312;DHT22;1668;49.648;8.570;2023-04-15T12:58:44;14.00;1.00
3312;DHT22;1668;49.648;8.570;2023-04-15T13:01:11;13.90;1.00
3312;DHT22;1668;49.648;8.570;2023-04-15T13:03:37;13.80;1.00
3312;DHT22;1668;49.648;8.570;2023-04-15T13:06:04;13.80;1.00
3312;DHT22;1668;49.648;8.570;2023-04-15T13:08:32;13.80;1.00
3312;DHT22;1668;49.648;8.570;2023-04-15T13:10:59;13.80;1.00
3312;DHT22;1668;49.648;8.570;2023-04-15T13:13:26;13.80;1.00
3312;DHT22;1668;49.648;8.570;2023-04-15T13:15:54;13.70;1.00
3312;DHT22;1668;49.648;8.570;2023-04-15T13:18:21;13.80;1.00
3312;DHT22;1668;49.648;8.570;2023-04-15T13:20:49;13.70;1.00
3312;DHT22;1668;49.648;8.570;2023-04-15T13:23:16;13.70;1.00
3312;DHT22;1668;49.648;8.570;2023-04-15T13:25:43;13.50;1.00
3312;DHT22;1668;49.648;8.570;2023-04-15T13:28:13;13.30;1.00
3312;DHT22;1668;49.648;8.570;2023-04-15T13:30:40;13.30;1.00
3312;DHT22;1668;49.648;8.570;2023-04-15T13:33:10;13.20;1.00
3312;DHT22;1668;49.648;8.570;2023-04-15T13:35:37;13.30;1.00
3312;DHT22;1668;49.648;8.570;2023-04-15T13:38:05;13.30;1.00
3312;DHT22;1668;49.648;8.570;2023-04-15T13:40:32;13.30;1.00
3312;DHT22;1668;49.648;8.570;2023-04-15T13:42:58;13.30;1.00
3312;DHT22;1668;49.648;8.570;2023-04-15T13:45:26;13.40;1.00
3312;DHT22;1668;49.648;8.570;2023-04-15T13:47:54;13.40;1.00
3312;DHT22;1668;49.648;8.570;2023-04-15T13:50:23;13.40;1.00
3312;DHT22;1668;49.648;8.570;2023-04-15T13:52:49;13.30;1.00
3312;DHT22;1668;49.648;8.570;2023-04-15T13:55:17;13.10;1.00
3312;DHT22;1668;49.648;8.570;2023-04-15T13:57:44;13.10;1.00
3312;DHT22;1668;49.648;8.570;2023-04-15T14:00:11;13.00;1.00
3312;DHT22;1668;49.648;8.570;2023-04-15T14:02:39;12.90;31.30
3312;DHT22;1668;49.648;8.570;2023-04-15T14:05:07;13.00;99.90
3312;DHT22;1668;49.648;8.570;2023-04-15T14:07:35;13.00;99.90
3312;DHT22;1668;49.648;8.570;2023-04-15T14:10:03;13.00;99.90
3312;DHT22;1668;49.648;8.570;2023-04-15T14:12:30;12.70;1.00
3312;DHT22;1668;49.648;8.570;2023-04-15T14:14:57;12.70;1.00
3312;DHT22;1668;49.648;8.570;2023-04-15T14:17:24;12.70;1.00
3312;DHT22;1668;49.648;8.570;2023-04-15T14:19:51;12.60;99.90
3312;DHT22;1668;49.648;8.570;2023-04-15T14:22:18;12.60;99.90
3312;DHT22;1668;49.648;8.570;2023-04-15T14:24:46;12.50;1.00
3312;DHT22;1668;49.648;8.570;2023-04-15T14:27:14;12.50;99.90
3312;DHT22;1668;49.648;8.570;2023-04-15T14:29:42;12.60;1.00
3312;DHT22;1668;49.648;8.570;2023-04-15T14:32:09;12.40;99.90
3312;DHT22;1668;49.648;8.570;2023-04-15T14:34:35;12.40;1.00
3312;DHT22;1668;49.648;8.570;2023-04-15T14:37:02;12.30;62.80
3312;DHT22;1668;49.648;8.570;2023-04-15T14:39:29;12.20;6.10
3312;DHT22;1668;49.648;8.570;2023-04-15T14:41:58;12.10;99.90
3312;DHT22;1668;49.648;8.570;2023-04-15T14:44:25;12.10;47.80
3312;DHT22;1668;49.648;8.570;2023-04-15T14:46:52;12.10;22.70
3312;DHT22;1668;49.648;8.570;2023-04-15T14:49:20;12.10;1.00
3312;DHT22;1668;49.648;8.570;2023-04-15T14:51:47;12.10;28.20
3312;DHT22;1668;49.648;8.570;2023-04-15T14:54:14;12.10;99.90
3312;DHT22;1668;49.648;8.570;2023-04-15T14:56:41;12.10;99.90
3312;DHT22;1668;49.648;8.570;2023-04-15T14:59:09;12.00;32.40
3312;DHT22;1668;49.648;8.570;2023-04-15T15:01:36;12.00;99.90
3312;DHT22;1668;49.648;8.570;2023-04-15T15:04:03;11.90;15.40
3312;DHT22;1668;49.648;8.570;2023-04-15T15:06:30;11.90;99.90
3312;DHT22;1668;49.648;8.570;2023-04-15T15:08:57;11.90;1.00
3312;DHT22;1668;49.648;8.570;2023-04-15T15:11:26;11.80;1.00
3312;DHT22;1668;49.648;8.570;2023-04-15T15:13:53;11.80;99.90
3312;DHT22;1668;49.648;8.570;2023-04-15T15:16:21;11.80;1.00
3312;DHT22;1668;49.648;8.570;2023-04-15T15:18:49;11.80;64.90
3312;DHT22;1668;49.648;8.570;2023-04-15T15:21:16;11.70;99.90
3312;DHT22;1668;49.648;8.570;2023-04-15T15:23:43;11.70;99.90
3312;DHT22;1668;49.648;8.570;2023-04-15T15:26:10;11.70;91.70
3312;DHT22;1668;49.648;8.570;2023-04-15T15:28:37;11.70;1.00
3312;DHT22;1668;49.648;8.570;2023-04-15T15:31:04;11.60;99.90
3312;DHT22;1668;49.648;8.570;2023-04-15T15:33:32;11.50;99.90
3312;DHT22;1668;49.648;8.570;2023-04-15T15:35:59;11.50;99.90
3312;DHT22;1668;49.648;8.570;2023-04-15T15:38:27;11.40;1.00
3312;DHT22;1668;49.648;8.570;2023-04-15T15:40:54;11.40;1.00
3312;DHT22;1668;49.648;8.570;2023-04-15T15:43:21;11.30;1.00
3312;DHT22;1668;49.648;8.570;2023-04-15T15:45:48;11.30;1.00
3312;DHT22;1668;49.648;8.570;2023-04-15T15:48:16;11.20;1.00
3312;DHT22;1668;49.648;8.570;2023-04-15T15:50:44;11.20;99.90
3312;DHT22;1668;49.648;8.570;2023-04-15T15:53:11;11.20;99.90
3312;DHT22;1668;49.648;8.570;2023-04-15T15:55:42;11.20;99.90
3312;DHT22;1668;49.648;8.570;2023-04-15T15:58:09;11.30;1.00
3312;DHT22;1668;49.648;8.570;2023-04-15T16:00:36;11.20;1.00
3312;DHT22;1668;49.648;8.570;2023-04-15T16:03:03;11.20;1.00
3312;DHT22;1668;49.648;8.570;2023-04-15T16:05:30;11.20;1.00
3312;DHT22;1668;49.648;8.570;2023-04-15T16:07:58;11.20;1.00
3312;DHT22;1668;49.648;8.570;2023-04-15T16:10:26;11.20;99.90
3312;DHT22;1668;49.648;8.570;2023-04-15T16:12:53;11.20;99.90
3312;DHT22;1668;49.648;8.570;2023-04-15T16:15:21;11.10;1.00
3312;DHT22;1668;49.648;8.570;2023-04-15T16:17:48;11.10;1.00
3312;DHT22;1668;49.648;8.570;2023-04-15T16:20:15;11.00;99.90
3312;DHT22;1668;49.648;8.570;2023-04-15T16:22:42;11.00;99.90
3312;DHT22;1668;49.648;8.570;2023-04-15T16:25:11;11.00;99.90
3312;DHT22;1668;49.648;8.570;2023-04-15T16:27:38;10.90;1.00
3312;DHT22;1668;49.648;8.570;2023-04-15T16:30:06;10.90;1.00
3312;DHT22;1668;49.648;8.570;2023-04-15T16:32:33;10.90;81.80
3312;DHT22;1668;49.648;8.570;2023-04-15T16:35:01;10.90;14.20
3312;DHT22;1668;49.648;8.570;2023-04-15T16:37:28;10.80;1.00
3312;DHT22;1668;49.648;8.570;2023-04-15T16:39:55;10.70;1.00